Reklama
Líbí se Vám tento web? Budeme velmi rádi, pokud přidáte hodnocení +1

Seznam meteostanic a jejich METAR

Vyhledat místa podle abecedy:
A B C D E F G H I J K L M N O P Q R S T U V W X Y Z

Filtrovat:

ID stanice:
a/nebo
Název místa (fulltext):
 
Místo (ID)Naposledy načteno 
Temelín (Temelin) 21.06.2018 02:00 UTC Zobrazit data
Místo: Temelín
Teplota: 16 °C (pocitová: 14 °C)
Vítr: 3 m/s z(e) 250°
Počasí:
Dohlednost: 35 km
Zákl. oblačnosti: N/A
Vlhkost: 83%
Tahiti (NTAA) 21.06.2018 02:00 UTC Zobrazit METAR
NTAA 210200Z 23005KT 9999 FEW023 SCT053 29/21 Q1014 WS R22 NOSIG
Taipei (RCTP) 21.06.2018 02:00 UTC Zobrazit METAR
RCTP 210200Z 23014KT 9999 FEW015 SCT090 BKN160 32/26 Q1006 NOSIG RMK A2971
Taipei (RCSS) 21.06.2018 02:00 UTC Zobrazit METAR
RCSS 210200Z 20005KT 150V230 9999 FEW020 BKN100 BKN160 33/24 Q1006 NOSIG RMK A2972
Tallinn (EETN) 21.06.2018 01:50 UTC Zobrazit METAR
EETN 210150Z 11005KT 4700 -DZ BR BKN004 OVC010 10/10 Q1006
Tampere (EFTP) 21.06.2018 01:50 UTC Zobrazit METAR
EFTP 210150Z AUTO 20001KT CAVOK 06/04 Q1005
Tarawa I (NGTA) 21.06.2018 02:00 UTC Zobrazit METAR
NGTA 210200Z 20005KT 9999 SCT020 BKN100 31/23 Q1009
Targu Mures (LRTM) 21.06.2018 02:00 UTC Zobrazit METAR
LRTM 210200Z AUTO 08003KT 9999 OVC150/// 20/18 Q1019
Tartu (EETU) 21.06.2018 01:50 UTC Zobrazit METAR
EETU 210150Z 13003KT 090V200 9999 OVC009 12/11 Q1007
Tashkent (UTTT) 21.06.2018 02:00 UTC Zobrazit METAR
UTTT 210200Z VRB02KT CAVOK 25/11 Q1013 R26R/CLRD70 NOSIG
Tbilisi (UGGG) Zatím nenačteno  
Tegucigalpa (MHTG) 20.06.2018 16:00 UTC Zobrazit METAR
MHTG 201600Z 00000KT 9999 SCT028 BKN250 26/18 Q1019 A3009 NOSIG
Tehran (OIII) 21.06.2018 02:00 UTC Zobrazit METAR
OIII 210200Z 00000KT CAVOK 23/06 Q1013 A2994 NOSIG
Tel Aviv (LLBG) 21.06.2018 01:50 UTC Zobrazit METAR
LLBG 210150Z VRB02KT 9999 FEW025 22/18 Q1014 NOSIG
Tenerife (GCTS) 21.06.2018 02:00 UTC Zobrazit METAR
GCTS 210200Z 07007KT 9999 FEW023 BKN032 20/16 Q1019 NOSIG
Thessaloniki (LGTS) 21.06.2018 01:50 UTC Zobrazit METAR
LGTS 210150Z VRB03KT 9999 FEW025 22/15 Q1015 NOSIG
Thule (BGTL) 21.06.2018 01:56 UTC Zobrazit METAR
BGTL 210156Z AUTO 28009KT 9999 CLR 01/00 A2959 RMK AO2 SLP005 T00081004 TSNO $
Timisoara (LRTR) 21.06.2018 02:00 UTC Zobrazit METAR
LRTR 210200Z 11006KT 8000 NSC 19/19 Q1017
Tirana (LATI) 21.06.2018 01:50 UTC Zobrazit METAR
LATI 210150Z 12003KT 080V150 9999 SCT100 BKN130 21/18 Q1017 NOSIG
Tokyo (RJTT) 21.06.2018 02:00 UTC Zobrazit METAR
RJTT 210200Z 17010KT 9999 -RA FEW008 BKN060 22/19 Q1002 NOSIG RMK 1ST008 7SC060 A2959
Torp (ENTO) 21.06.2018 01:50 UTC Zobrazit METAR
ENTO 210150Z AUTO 31003KT 9999 SCT084/// BKN100/// OVC220/// 08/08 Q1004
Toulouse (LFBO) 21.06.2018 02:00 UTC Zobrazit METAR
LFBO 210200Z AUTO 20005KT CAVOK 20/15 Q1018 NOSIG
Tripoli (HLLT) 13.07.2014 03:50 UTC Zobrazit METAR
HLLT 130350Z 11009KT CAVOK 24/15 Q1015
Trondheim (ENVA) 21.06.2018 00:50 UTC Zobrazit METAR
ENVA 210050Z 24006KT 9999 SCT030 BKN042 09/06 Q1007 RMK WIND 670FT 25006KT
Tunis (DTTA) 21.06.2018 02:00 UTC Zobrazit METAR
DTTA 210200Z 00000KT 9999 FEW026 19/18 Q1017 NOSIG
Turku (EFTU) 21.06.2018 01:50 UTC Zobrazit METAR
EFTU 210150Z AUTO 21004KT CAVOK 07/06 Q1005
Reklama

Počasí na Váš email

Emaily jsou bez reklamy a bez spamu



Odhlásit newsletter

Reklama


Lunární kalendář

  • 28.06.
  • 06.07.
  • 13.07.
  • 19.07.



Slunečno.cz na Google+

Reklama


Reklama
Povinné ručení
Reklama




Reklama